Alexandria, Romania

1:47 AM EEST on October 21, 2014 (GMT +0300)
Rasuceni | Change Station
CLOSE
Current Station
Personal Weather Station
Location: R%u0103suceni,
Elevation: 217 ft
Nearby Weather Stations

Elev 217 ft 44.10 °N, 25.67 °E | Updated 5 seconds ago

Clear
Clear
57.6 °F
Feels Like 57.6 °F
N
0.0
Wind Variable Wind from North
Gusts 0.0 mph

Today
High -- | Low -- °F
--% Chance of Precip.
Yesterday
High -- | Low -- °F
Precip. -- in
7:40 AM 6:25 PM
Waning Crescent, 9% visible
Pressure 29.95 in
Visibility -9999.0 miles
Clouds
Dew Point 52 °F
Humidity 83%
Rainfall 0.00 in
Snow Depth Not available.
UV Not available.
Pollen Not available.
Air Quality Not available.
Flu Activity Not available.
METAR LRBS 202230Z VRB02KT CAVOK 13/10 Q1014 NOSIG

More Conditions Fewer Conditions

Pressure 29.95 in
Visibility -9999.0 miles
Clouds
Dew Point 52 °F
Humidity 83%
Rainfall 0.00 in
Snow Depth Not available.
UV Not available.
Pollen Not available.
Air Quality Not available.
Flu Activity Not available.
METAR LRBS 202230Z VRB02KT CAVOK 13/10 Q1014 NOSIG

More Conditions Fewer Conditions

10-Day Weather Forecast

Almanac

Astronomy

Oct. 21, 2014 Rise Set
Actual Time 7:40 AM EEST 6:25 PM EEST
Civil Twilight 7:11 AM EEST 6:54 PM EEST
Nautical Twilight 6:37 AM EEST 7:28 PM EEST
Astronomical Twilight 6:04 AM EEST 8:01 PM EEST
Moon 5:01 AM EEST (10/21) 5:13 PM EEST (10/21)
Length of Visible Light 11h 43m
Length of Day
10h 45m
Tomorrow will be 2m 51s shorter.
Waning Crescent, 9% of the Moon is Illuminated
Oct 20
Waning Crescent
Oct 23
New
Oct 30
First Quarter
Nov 6
Full
Nov 14
Last Quarter

Yesterday's Extremes

Country Highs Country Lows

Community

WunderPhotos

Upload Photos

1,763,541 photos uploaded!

WunderBlogs® & News

By Dr. Jeff Masters
Director of Meteorology, Weather Underground
By Kari Strenfel
Meteorologist, Weather Underground
By Christopher C. Burt
Weather Historian, Weather Underground
October 20, 2014
October 20, 2014
October 20, 2014

Nearby

Snow Depth

Not available.

Earthquake Activity

City Distance Mag. Time & Date
No recent earthquake activity has been reported nearby.
Minimum magnitude displayed is 2.5.

Coastal Water Temperatures

Place Temperature
No Stations Reporting

Nearby Weather Stations